Time;durP1;ratioP1;P1;durP2;ratioP2;P2;SDS_P1;SDS_P2;PMS_P1;PMS_P2;Temp;Humidity;BMP_temperature;BMP_pressure;BME280_temperature;BME280_humidity;BME280_pressure;Samples;Min_cycle;Max_cycle;Signal;HPM_P1;HPM_P2
2022/09/24 00:01:42;;;;;;;5.25;3.50;;;;;;;-140.66;100.00;55571.53;5054005;28;20044;-72
2022/09/24 00:04:28;;;;;;;4.18;3.05;;;;;;;-140.66;100.00;55571.53;5056371;28;20020;-71
2022/09/24 00:07:14;;;;;;;4.43;2.90;;;;;;;-140.66;100.00;55571.53;5039008;28;20052;-71
2022/09/24 00:10:01;;;;;;;4.05;3.40;;;;;;;-140.66;100.00;55571.53;5057564;28;20025;-72
2022/09/24 00:12:47;;;;;;;4.78;3.35;;;;;;;-140.66;100.00;55571.53;5041648;28;20365;-71
2022/09/24 00:15:37;;;;;;;4.18;3.05;;;;;;;-140.66;100.00;55571.53;5057509;28;20122;-72
2022/09/24 00:18:22;;;;;;;4.25;3.20;;;;;;;-140.66;100.00;55571.53;5056211;28;20036;-72
2022/09/24 00:21:20;;;;;;;5.85;3.47;;;;;;;-140.66;100.00;55571.53;5042890;28;20039;-72
2022/09/24 00:27:21;;;;;;;4.38;3.58;;;;;;;-140.66;100.00;55571.53;5056181;28;20453;-73
2022/09/24 00:30:07;;;;;;;8.50;4.82;;;;;;;-140.66;100.00;55571.53;5056679;28;20403;-72
2022/09/24 00:32:53;;;;;;;7.55;5.80;;;;;;;-140.66;100.00;55571.53;5057446;28;20036;-71
2022/09/24 00:35:40;;;;;;;11.93;6.03;;;;;;;-140.66;100.00;55571.53;5055930;28;20032;-72
2022/09/24 00:38:26;;;;;;;11.02;6.72;;;;;;;-140.66;100.00;55571.53;5056109;28;20025;-72
2022/09/24 00:41:11;;;;;;;6.38;5.20;;;;;;;-140.66;100.00;55571.53;5056622;28;20120;-73
2022/09/24 00:43:58;;;;;;;5.65;4.30;;;;;;;-140.66;100.00;55571.53;5055421;28;20404;-72
2022/09/24 00:46:43;;;;;;;7.72;4.53;;;;;;;-140.66;100.00;55571.53;5056529;28;20021;-71
2022/09/24 00:49:29;;;;;;;7.50;4.20;;;;;;;-140.66;100.00;55571.53;5056148;28;20030;-73
2022/09/24 00:52:17;;;;;;;6.53;3.40;;;;;;;-140.66;100.00;55571.53;5041637;28;20036;-72
2022/09/24 00:55:04;;;;;;;4.47;3.35;;;;;;;-140.66;100.00;55571.53;5055386;28;20087;-72
2022/09/24 00:57:55;;;;;;;5.18;3.78;;;;;;;-140.66;100.00;55571.53;5041026;28;20079;-71
2022/09/24 01:00:44;;;;;;;6.03;3.40;;;;;;;-140.66;100.00;55571.53;5057063;28;20021;-73
2022/09/24 01:03:32;;;;;;;4.03;3.40;;;;;;;-140.66;100.00;55571.53;5041186;28;20025;-72
2022/09/24 01:06:17;;;;;;;8.23;3.67;;;;;;;-140.66;100.00;55571.53;5055914;28;20044;-73
2022/09/24 01:09:03;;;;;;;5.78;3.60;;;;;;;-140.66;100.00;55571.53;5040646;28;20100;-72
2022/09/24 01:12:36;;;;;;;8.13;3.97;;;;;;;-140.66;100.00;55571.53;5055757;28;20097;-72
2022/09/24 01:15:33;;;;;;;4.30;3.40;;;;;;;-140.66;100.00;55571.53;4976642;28;20383;-72
2022/09/24 01:18:31;;;;;;;5.88;4.00;;;;;;;-140.66;100.00;55571.53;4975303;28;20106;-71
2022/09/24 01:21:35;;;;;;;8.57;3.90;;;;;;;-140.66;100.00;55571.53;5055694;28;20426;-73
2022/09/24 01:24:50;;;;;;;5.78;3.85;;;;;;;-140.66;100.00;55571.53;5055623;28;20059;-72
2022/09/24 01:27:40;;;;;;;7.50;3.70;;;;;;;-140.66;100.00;55571.53;5056764;28;20021;-73
2022/09/24 01:30:31;;;;;;;6.85;4.18;;;;;;;-140.66;100.00;55571.53;5041247;28;20040;-72
2022/09/24 01:33:20;;;;;;;5.22;3.90;;;;;;;-140.66;100.00;55571.53;5041141;28;20437;-72
2022/09/24 01:36:08;;;;;;;6.72;3.85;;;;;;;-140.66;100.00;55571.53;5055279;28;20032;-72
2022/09/24 01:38:57;;;;;;;6.28;3.88;;;;;;;-140.66;100.00;55571.53;5041012;28;20025;-72
2022/09/24 01:41:44;;;;;;;8.43;4.30;;;;;;;-140.66;100.00;55571.53;5054871;28;20047;-72
2022/09/24 01:44:32;;;;;;;4.55;3.40;;;;;;;-140.66;100.00;55571.53;5054732;28;20033;-72
2022/09/24 01:47:40;;;;;;;7.80;4.47;;;;;;;-140.66;100.00;55571.53;5054068;28;20031;-71
2022/09/24 01:50:30;;;;;;;7.88;4.22;;;;;;;-140.66;100.00;55571.53;5040379;28;20033;-72
2022/09/24 01:53:20;;;;;;;8.13;4.00;;;;;;;-140.66;100.00;55571.53;5054811;28;20097;-72
2022/09/24 01:56:13;;;;;;;7.15;4.10;;;;;;;-140.66;100.00;55571.53;5054000;28;20048;-72
2022/09/24 01:59:22;;;;;;;5.70;3.83;;;;;;;-140.66;100.00;55571.53;5054646;28;20457;-72
2022/09/24 02:02:27;;;;;;;5.15;4.15;;;;;;;-140.66;100.00;55571.53;5025974;28;20481;-72
2022/09/24 02:05:37;;;;;;;7.03;4.28;;;;;;;-140.66;100.00;55571.53;5054457;28;20063;-72
2022/09/24 02:08:28;;;;;;;5.85;4.10;;;;;;;-140.66;100.00;55571.53;5054463;28;20056;-73
2022/09/24 02:11:16;;;;;;;6.85;4.63;;;;;;;-140.66;100.00;55571.53;5055717;28;20032;-72
2022/09/24 02:14:08;;;;;;;8.13;4.20;;;;;;;-140.66;100.00;55571.53;5055641;28;20028;-72
2022/09/24 02:16:55;;;;;;;6.75;5.00;;;;;;;-140.66;100.00;55571.53;5054162;28;20493;-72
2022/09/24 02:19:42;;;;;;;9.18;4.38;;;;;;;-140.66;100.00;55571.53;5054308;28;20029;-72
2022/09/24 02:22:29;;;;;;;7.82;4.93;;;;;;;-140.66;100.00;55571.53;5054405;28;20035;-73
2022/09/24 02:25:21;;;;;;;7.88;4.63;;;;;;;-140.66;100.00;55571.53;5054108;28;20083;-74
2022/09/24 02:28:07;;;;;;;6.85;4.70;;;;;;;-140.66;100.00;55571.53;5053835;28;20145;-73
2022/09/24 02:31:00;;;;;;;6.88;4.60;;;;;;;-140.66;100.00;55571.53;5053632;28;20115;-72
2022/09/24 02:36:58;;;;;;;9.48;4.95;;;;;;;-140.66;100.00;55571.53;5055073;28;20029;-73
2022/09/24 02:39:44;;;;;;;6.68;4.80;;;;;;;-140.66;100.00;55571.53;5055334;28;20120;-73
2022/09/24 02:42:30;;;;;;;7.70;4.40;;;;;;;-140.66;100.00;55571.53;5040647;28;20154;-72
2022/09/24 02:45:16;;;;;;;6.45;4.75;;;;;;;-140.66;100.00;55571.53;5054959;28;20095;-72
2022/09/24 02:48:02;;;;;;;7.85;4.30;;;;;;;-140.66;100.00;55571.53;5053506;28;20044;-72
2022/09/24 02:50:47;;;;;;;7.60;4.53;;;;;;;-140.66;100.00;55571.53;5053670;28;20103;-72
2022/09/24 02:53:33;;;;;;;7.25;4.93;;;;;;;-140.66;100.00;55571.53;5054046;28;20029;-72
2022/09/24 02:56:19;;;;;;;7.97;5.13;;;;;;;-140.66;100.00;55571.53;5054540;28;20045;-71
2022/09/24 02:59:06;;;;;;;6.03;4.93;;;;;;;-140.66;100.00;55571.53;5053870;28;20025;-72
2022/09/24 03:01:52;;;;;;;7.05;5.10;;;;;;;-140.66;100.00;55571.53;5053514;28;20025;-71
2022/09/24 03:04:38;;;;;;;9.50;5.00;;;;;;;-140.66;100.00;55571.53;5053207;28;20331;-75
2022/09/24 03:07:23;;;;;;;7.50;5.30;;;;;;;-140.66;100.00;55571.53;5053999;28;20035;-72
2022/09/24 03:10:09;;;;;;;7.32;4.90;;;;;;;-140.66;100.00;55571.53;5053965;28;20017;-73
2022/09/24 03:12:55;;;;;;;7.93;5.00;;;;;;;-140.66;100.00;55571.53;5054357;28;20496;-72
2022/09/24 03:15:41;;;;;;;6.82;4.90;;;;;;;-140.66;100.00;55571.53;5054543;28;20036;-71
2022/09/24 03:18:27;;;;;;;6.18;4.60;;;;;;;-140.66;100.00;55571.53;5053336;28;20040;-73
2022/09/24 03:21:15;;;;;;;7.05;5.03;;;;;;;-140.66;100.00;55571.53;5053978;28;20101;-73
2022/09/24 03:24:02;;;;;;;7.25;5.15;;;;;;;-140.66;100.00;55571.53;5054726;28;20029;-77
2022/09/24 03:26:48;;;;;;;7.03;4.82;;;;;;;-140.66;100.00;55571.53;5053526;28;20033;-72
2022/09/24 03:32:38;;;;;;;8.48;5.60;;;;;;;-140.66;100.00;55571.53;5053553;28;20112;-71
2022/09/24 03:35:24;;;;;;;8.35;5.30;;;;;;;-140.66;100.00;55571.53;5053050;28;20075;-72
2022/09/24 03:38:09;;;;;;;7.45;5.35;;;;;;;-140.66;100.00;55571.53;5052551;28;20025;-72
2022/09/24 03:40:56;;;;;;;5.90;5.05;;;;;;;-140.66;100.00;55571.53;5053462;28;20032;-72
2022/09/24 03:43:42;;;;;;;6.95;5.43;;;;;;;-140.66;100.00;55571.53;5054447;28;20036;-72
2022/09/24 03:46:28;;;;;;;7.10;5.57;;;;;;;-140.66;100.00;55571.53;5058153;28;20127;-72
2022/09/24 03:49:14;;;;;;;7.22;5.50;;;;;;;-140.66;100.00;55571.53;5042927;28;20032;-73
2022/09/24 03:52:00;;;;;;;6.78;5.13;;;;;;;-140.66;100.00;55571.53;5056963;28;20175;-72
2022/09/24 03:54:46;;;;;;;9.52;5.95;;;;;;;-140.66;100.00;55571.53;5058094;28;20043;-74
2022/09/24 03:57:32;;;;;;;7.90;5.30;;;;;;;-140.66;100.00;55571.53;5057053;28;20033;-73
2022/09/24 04:00:17;;;;;;;8.15;5.50;;;;;;;-140.66;100.00;55571.53;5043131;28;20411;-73
2022/09/24 04:03:04;;;;;;;8.43;5.80;;;;;;;-140.66;100.00;55571.53;5058281;28;20024;-74
2022/09/24 04:05:50;;;;;;;8.60;5.47;;;;;;;-140.66;100.00;55571.53;5057913;28;20031;-73
2022/09/24 04:08:36;;;;;;;7.47;5.60;;;;;;;-140.66;100.00;55571.53;5056437;28;20466;-72
2022/09/24 04:11:22;;;;;;;7.78;5.60;;;;;;;-140.66;100.00;55571.53;5042150;28;20144;-74
2022/09/24 04:14:08;;;;;;;8.82;5.60;;;;;;;-140.66;100.00;55571.53;5055659;28;20033;-72
2022/09/24 04:16:54;;;;;;;11.23;5.90;;;;;;;-140.66;100.00;55571.53;5056492;28;20035;-73
2022/09/24 04:19:40;;;;;;;8.27;5.40;;;;;;;-140.66;100.00;55571.53;5042564;28;20120;-73
2022/09/24 04:22:28;;;;;;;11.35;5.68;;;;;;;-140.66;100.00;55571.53;5057840;28;20365;-72
2022/09/24 04:25:13;;;;;;;10.13;6.15;;;;;;;-140.66;100.00;55571.53;5056652;28;20508;-73
2022/09/24 04:28:02;;;;;;;7.57;5.75;;;;;;;-140.66;100.00;55571.53;5057865;28;20116;-74
2022/09/24 04:30:48;;;;;;;11.80;6.07;;;;;;;-140.66;100.00;55571.53;5056139;28;20041;-72
2022/09/24 04:33:34;;;;;;;9.18;6.05;;;;;;;-140.66;100.00;55571.53;5056424;28;20061;-72
2022/09/24 04:36:19;;;;;;;9.18;5.90;;;;;;;-140.66;100.00;55571.53;5042267;28;20056;-73
2022/09/24 04:39:05;;;;;;;9.85;5.90;;;;;;;-140.66;100.00;55571.53;5056186;28;20036;-73
2022/09/24 04:41:52;;;;;;;12.63;6.35;;;;;;;-140.66;100.00;55571.53;5056275;28;20036;-72
2022/09/24 04:44:37;;;;;;;7.82;5.57;;;;;;;-140.66;100.00;55571.53;5042348;28;20020;-72
2022/09/24 04:47:24;;;;;;;9.82;6.15;;;;;;;-140.66;100.00;55571.53;5056270;28;20040;-72
2022/09/24 04:50:11;;;;;;;10.20;6.90;;;;;;;-140.66;100.00;55571.53;5057206;28;20024;-73
2022/09/24 04:52:56;;;;;;;8.70;6.25;;;;;;;-140.66;100.00;55571.53;5057944;28;20400;-73
2022/09/24 04:55:43;;;;;;;11.00;6.20;;;;;;;-140.66;100.00;55571.53;5055259;28;20117;-73
2022/09/24 04:58:29;;;;;;;10.40;6.68;;;;;;;-140.66;100.00;55571.53;5056137;28;20024;-73
2022/09/24 05:01:15;;;;;;;10.05;6.25;;;;;;;-140.66;100.00;55571.53;5055129;28;20056;-74
2022/09/24 05:04:01;;;;;;;8.35;5.95;;;;;;;-140.66;100.00;55571.53;5055089;28;20043;-73
2022/09/24 05:06:47;;;;;;;10.05;6.20;;;;;;;-140.66;100.00;55571.53;5055401;28;20040;-72
2022/09/24 05:09:33;;;;;;;9.10;6.00;;;;;;;-140.66;100.00;55571.53;5055815;28;20043;-72
2022/09/24 05:12:20;;;;;;;8.77;5.82;;;;;;;-140.66;100.00;55571.53;5055648;28;20037;-73
2022/09/24 05:15:06;;;;;;;9.48;5.47;;;;;;;-140.66;100.00;55571.53;5055263;28;20445;-74
2022/09/24 05:17:52;;;;;;;9.20;6.15;;;;;;;-140.66;100.00;55571.53;5055705;28;20119;-73
2022/09/24 05:20:37;;;;;;;8.50;5.90;;;;;;;-140.66;100.00;55571.53;5055616;28;20402;-73
2022/09/24 05:23:23;;;;;;;7.78;5.72;;;;;;;-140.66;100.00;55571.53;5055096;28;20330;-73
2022/09/24 05:29:13;;;;;;;9.32;5.97;;;;;;;-140.66;100.00;55571.53;5055484;28;20108;-73
2022/09/24 05:32:04;;;;;;;9.68;6.07;;;;;;;-140.66;100.00;55571.53;5055597;28;20025;-72
2022/09/24 05:34:51;;;;;;;10.07;5.63;;;;;;;-140.66;100.00;55571.53;5055451;28;20044;-73
2022/09/24 05:37:37;;;;;;;8.40;5.53;;;;;;;-140.66;100.00;55571.53;5055380;28;20033;-72
2022/09/24 05:43:27;;;;;;;6.85;5.47;;;;;;;-140.66;100.00;55571.53;5055400;28;20017;-73
2022/09/24 05:46:12;;;;;;;10.38;5.82;;;;;;;-140.66;100.00;55571.53;5055131;28;20102;-72
2022/09/24 05:48:59;;;;;;;10.35;6.40;;;;;;;-140.66;100.00;55571.53;5054886;28;20032;-74
2022/09/24 05:51:47;;;;;;;9.05;6.03;;;;;;;-140.66;100.00;55571.53;5054093;28;20039;-73
2022/09/24 05:54:32;;;;;;;10.30;5.65;;;;;;;-140.66;100.00;55571.53;5054392;28;20036;-74
2022/09/24 05:57:18;;;;;;;9.00;6.20;;;;;;;-140.66;100.00;55571.53;5055039;28;20040;-72
2022/09/24 06:00:05;;;;;;;7.45;5.85;;;;;;;-140.66;100.00;55571.53;5040431;28;20052;-73
2022/09/24 06:02:51;;;;;;;9.30;6.10;;;;;;;-140.66;100.00;55571.53;5054571;28;20111;-72
2022/09/24 06:05:37;;;;;;;10.77;6.20;;;;;;;-140.66;100.00;55571.53;5054076;28;20025;-72
2022/09/24 06:08:23;;;;;;;8.95;6.32;;;;;;;-140.66;100.00;55571.53;5040088;28;20017;-72
2022/09/24 06:11:09;;;;;;;9.77;6.22;;;;;;;-140.66;100.00;55571.53;5055860;28;20048;-73
2022/09/24 06:13:55;;;;;;;9.45;6.63;;;;;;;-140.66;100.00;55571.53;5040456;28;20510;-73
2022/09/24 06:16:41;;;;;;;9.95;6.10;;;;;;;-140.66;100.00;55571.53;5054803;28;20120;-72
2022/09/24 06:19:26;;;;;;;11.48;6.82;;;;;;;-140.66;100.00;55571.53;5054942;28;20029;-73
2022/09/24 06:22:13;;;;;;;10.60;6.88;;;;;;;-140.66;100.00;55571.53;5040757;28;20047;-71
2022/09/24 06:24:58;;;;;;;10.43;6.45;;;;;;;-140.66;100.00;55571.53;5058715;28;20025;-72
2022/09/24 06:27:44;;;;;;;10.95;7.03;;;;;;;-140.66;100.00;55571.53;5061738;28;20021;-72
2022/09/24 06:30:37;;;;;;;12.30;6.70;;;;;;;-140.66;100.00;55571.53;5062389;28;20107;-72
2022/09/24 06:33:22;;;;;;;15.52;7.18;;;;;;;-140.66;100.00;55571.53;5060237;28;20044;-70
2022/09/24 06:36:09;;;;;;;9.93;6.63;;;;;;;-140.66;100.00;55571.53;5061785;28;20029;-72
2022/09/24 06:38:54;;;;;;;13.50;7.70;;;;;;;-140.66;100.00;55571.53;5060255;28;20050;-72
2022/09/24 06:41:40;;;;;;;9.82;6.35;;;;;;;-140.66;100.00;55571.53;5041294;28;20051;-72
2022/09/24 06:44:26;;;;;;;7.40;5.88;;;;;;;-140.66;100.00;55571.53;5053877;28;20061;-72
2022/09/24 06:47:12;;;;;;;8.35;5.90;;;;;;;-140.66;100.00;55571.53;5054361;28;20037;-72
2022/09/24 06:49:58;;;;;;;9.10;6.05;;;;;;;-140.66;100.00;55571.53;5054366;28;20021;-72
2022/09/24 06:52:43;;;;;;;9.25;6.55;;;;;;;-140.66;100.00;55571.53;5072145;28;20009;-73
2022/09/24 06:55:29;;;;;;;8.90;6.18;;;;;;;-140.66;100.00;55571.53;5057698;28;20112;-72
2022/09/24 06:58:18;;;;;;;9.50;6.60;;;;;;;-140.66;100.00;55571.53;5053683;28;20036;-73
2022/09/24 07:01:05;;;;;;;10.60;7.20;;;;;;;-140.66;100.00;55571.53;5054412;28;20032;-73
2022/09/24 07:03:51;;;;;;;8.90;6.50;;;;;;;-140.66;100.00;55571.53;5054972;28;20029;-73
2022/09/24 07:09:48;;;;;;;8.65;6.30;;;;;;;-140.66;100.00;55571.53;5040789;28;20339;-73
2022/09/24 07:12:35;;;;;;;8.30;6.00;;;;;;;-140.66;100.00;55571.53;5053937;28;20025;-73
2022/09/24 07:15:21;;;;;;;8.80;6.38;;;;;;;-140.66;100.00;55571.53;5053620;28;20377;-72
2022/09/24 07:18:07;;;;;;;9.25;6.45;;;;;;;-140.66;100.00;55571.53;5056268;28;20025;-73
2022/09/24 07:20:54;;;;;;;8.48;6.60;;;;;;;-140.66;100.00;55571.53;5059105;28;20060;-73
2022/09/24 07:23:39;;;;;;;9.45;7.30;;;;;;;-140.66;100.00;55571.53;5058562;28;20025;-72
2022/09/24 07:26:28;;;;;;;9.88;6.50;;;;;;;-140.66;100.00;55571.53;5057639;28;20057;-73
2022/09/24 07:29:14;;;;;;;10.60;6.93;;;;;;;-140.66;100.00;55571.53;5057585;28;20025;-72
2022/09/24 07:32:00;;;;;;;10.45;6.63;;;;;;;-140.66;100.00;55571.53;5057841;28;20450;-72
2022/09/24 07:34:46;;;;;;;9.55;6.50;;;;;;;-140.66;100.00;55571.53;5058622;28;20025;-72
2022/09/24 07:37:32;;;;;;;9.25;6.65;;;;;;;-140.66;100.00;55571.53;5057950;28;20025;-73
2022/09/24 07:40:18;;;;;;;10.65;6.63;;;;;;;-140.66;100.00;55571.53;5059709;28;20039;-72
2022/09/24 07:43:06;;;;;;;9.07;6.95;;;;;;;-140.66;100.00;55571.53;5058073;28;20025;-71
2022/09/24 07:45:53;;;;;;;8.57;6.35;;;;;;;-140.66;100.00;55571.53;5057256;28;20040;-71
2022/09/24 07:48:39;;;;;;;12.02;6.38;;;;;;;-140.66;100.00;55571.53;5042740;28;20404;-72
2022/09/24 07:51:27;;;;;;;9.93;6.13;;;;;;;-140.66;100.00;55571.53;5057681;28;20028;-73
2022/09/24 07:54:12;;;;;;;7.32;5.78;;;;;;;-140.66;100.00;55571.53;5043252;28;20033;-73
2022/09/24 07:57:01;;;;;;;7.75;6.00;;;;;;;-140.66;100.00;55571.53;5057274;28;20064;-73
2022/09/24 07:59:47;;;;;;;8.68;7.03;;;;;;;-140.66;100.00;55571.53;5056989;28;20029;-72
2022/09/24 08:02:33;;;;;;;10.85;6.65;;;;;;;-140.66;100.00;55571.53;5056633;28;20025;-72
2022/09/24 08:05:19;;;;;;;11.98;6.32;;;;;;;-140.66;100.00;55571.53;5057852;28;20094;-73
2022/09/24 08:08:05;;;;;;;9.80;6.22;;;;;;;-140.66;100.00;55571.53;5056748;28;20033;-72
2022/09/24 08:10:50;;;;;;;9.10;5.63;;;;;;;-140.66;100.00;55571.53;5056526;28;20109;-73
2022/09/24 08:13:37;;;;;;;10.38;6.20;;;;;;;-140.66;100.00;55571.53;5056589;28;20123;-72
2022/09/24 08:16:24;;;;;;;8.48;5.90;;;;;;;-140.66;100.00;55571.53;5056707;28;20354;-73
2022/09/24 08:19:12;;;;;;;8.07;5.80;;;;;;;-140.66;100.00;55571.53;5056418;28;20025;-72
2022/09/24 08:21:58;;;;;;;7.65;5.18;;;;;;;-140.66;100.00;55571.53;5057314;28;20051;-72
2022/09/24 08:24:44;;;;;;;10.18;5.50;;;;;;;-140.66;100.00;55571.53;5042737;28;20028;-72
2022/09/24 08:27:31;;;;;;;6.20;5.05;;;;;;;-140.66;100.00;55571.53;5056179;28;20029;-72
2022/09/24 08:30:17;;;;;;;6.55;4.97;;;;;;;-140.66;100.00;55571.53;5041432;28;20040;-72
2022/09/24 08:33:06;;;;;;;6.47;4.85;;;;;;;-140.66;100.00;55571.53;5057550;28;20056;-73
2022/09/24 08:35:51;;;;;;;8.13;5.28;;;;;;;-140.66;100.00;55571.53;5056533;28;20025;-71
2022/09/24 08:38:37;;;;;;;5.97;4.95;;;;;;;-140.66;100.00;55571.53;5057205;28;20028;-73
2022/09/24 08:41:32;;;;;;;6.32;4.85;;;;;;;-140.66;100.00;55571.53;5041831;28;20089;-72
2022/09/24 08:47:55;;;;;;;5.78;4.60;;;;;;;-140.66;100.00;55571.53;5055925;28;20029;-73
2022/09/24 08:50:59;;;;;;;5.47;4.50;;;;;;;-140.66;100.00;55571.53;5055889;28;20108;-75
2022/09/24 08:54:06;;;;;;;6.45;4.70;;;;;;;-140.66;100.00;55571.53;5055999;28;20024;-71
2022/09/24 08:56:55;;;;;;;5.70;4.07;;;;;;;-140.66;100.00;55571.53;5040735;28;20053;-73
2022/09/24 08:59:46;;;;;;;5.07;4.13;;;;;;;-140.66;100.00;55571.53;5055861;28;20118;-73
2022/09/24 09:03:05;;;;;;;5.38;3.90;;;;;;;-140.66;100.00;55571.53;5055331;28;20052;-73
2022/09/24 09:05:58;;;;;;;6.35;4.25;;;;;;;-140.66;100.00;55571.53;5041471;28;20021;-73
2022/09/24 09:08:46;;;;;;;5.63;3.97;;;;;;;-140.66;100.00;55571.53;5041444;28;20024;-73
2022/09/24 09:11:35;;;;;;;7.00;3.70;;;;;;;-140.66;100.00;55571.53;5055876;28;20025;-74
2022/09/24 09:14:48;;;;;;;8.00;4.05;;;;;;;-140.66;100.00;55571.53;5056720;28;20029;-73
2022/09/24 09:17:36;;;;;;;5.35;3.95;;;;;;;-140.66;100.00;55571.53;5054663;28;20412;-74
2022/09/24 09:20:38;;;;;;;5.38;3.17;;;;;;;-140.66;100.00;55571.53;5055517;28;20044;-73
2022/09/24 09:23:38;;;;;;;5.30;3.28;;;;;;;-140.66;100.00;55571.53;5055527;28;20039;-73
2022/09/24 09:26:25;;;;;;;3.65;3.10;;;;;;;-140.66;100.00;55571.53;5055840;28;20033;-74
2022/09/24 09:29:11;;;;;;;3.42;3.00;;;;;;;-140.66;100.00;55571.53;5055360;28;20369;-74
2022/09/24 09:32:11;;;;;;;4.00;3.10;;;;;;;-140.66;100.00;55571.53;5055690;28;20025;-74
2022/09/24 09:34:57;;;;;;;4.63;3.85;;;;;;;-140.66;100.00;55571.53;5055108;28;20029;-72
2022/09/24 09:37:52;;;;;;;3.45;2.63;;;;;;;-140.66;100.00;55571.53;5054999;28;20506;-72
2022/09/24 09:40:46;;;;;;;3.58;2.65;;;;;;;-140.66;100.00;55571.53;5054764;28;20032;-73
2022/09/24 09:43:32;;;;;;;4.03;3.20;;;;;;;-140.66;100.00;55571.53;5055041;28;20190;-73
2022/09/24 09:46:29;;;;;;;3.55;3.05;;;;;;;-140.66;100.00;55571.53;5055879;28;20031;-72
2022/09/24 09:49:16;;;;;;;4.80;3.00;;;;;;;-140.66;100.00;55571.53;5054525;28;20017;-72
2022/09/24 09:52:11;;;;;;;3.70;2.97;;;;;;;-140.66;100.00;55571.53;5055365;28;20043;-73
2022/09/24 09:54:58;;;;;;;4.88;2.80;;;;;;;-140.66;100.00;55571.53;5054070;28;20495;-73
2022/09/24 09:57:44;;;;;;;4.60;2.58;;;;;;;-140.66;100.00;55571.53;5055120;28;20029;-72
2022/09/24 10:00:33;;;;;;;3.05;2.67;;;;;;;-140.66;100.00;55571.53;5056011;28;20405;-73
2022/09/24 10:03:30;;;;;;;3.92;2.83;;;;;;;-140.66;100.00;55571.53;5055736;28;20107;-74
2022/09/24 10:06:25;;;;;;;5.40;3.03;;;;;;;-140.66;100.00;55571.53;5055968;28;20036;-73
2022/09/24 10:09:15;;;;;;;3.45;2.70;;;;;;;-140.66;100.00;55571.53;5055939;28;20031;-74
2022/09/24 10:12:07;;;;;;;3.08;2.30;;;;;;;-140.66;100.00;55571.53;5055217;28;20438;-72
2022/09/24 10:14:59;;;;;;;3.90;2.45;;;;;;;-140.66;100.00;55571.53;5054554;28;20041;-74
2022/09/24 10:17:48;;;;;;;4.32;2.60;;;;;;;-140.66;100.00;55571.53;5054355;28;20029;-73
2022/09/24 10:20:35;;;;;;;2.90;2.20;;;;;;;-140.66;100.00;55571.53;5040418;28;20021;-72
2022/09/24 10:23:29;;;;;;;5.57;3.35;;;;;;;-140.66;100.00;55571.53;5054136;28;20033;-74
2022/09/24 10:26:15;;;;;;;3.85;2.15;;;;;;;-140.66;100.00;55571.53;5054072;28;20025;-73
2022/09/24 10:32:15;;;;;;;4.97;2.00;;;;;;;-140.66;100.00;55571.53;5053888;28;20418;-69
2022/09/24 10:35:17;;;;;;;4.93;2.20;;;;;;;-140.66;100.00;55571.53;5039700;28;20056;-71
2022/09/24 10:38:21;;;;;;;5.82;2.22;;;;;;;-140.66;100.00;55571.53;5054952;28;20025;-71
2022/09/24 10:41:27;;;;;;;3.38;2.30;;;;;;;-140.66;100.00;55571.53;5039881;28;20036;-69
2022/09/24 10:44:15;;;;;;;2.55;2.03;;;;;;;-140.66;100.00;55571.53;5054911;28;20127;-71
2022/09/24 10:47:16;;;;;;;2.33;2.00;;;;;;;-140.66;100.00;55571.53;5055262;28;20056;-71
2022/09/24 10:50:17;;;;;;;2.63;2.08;;;;;;;-140.66;100.00;55571.53;5053701;28;20036;-71
2022/09/24 10:53:12;;;;;;;2.38;1.90;;;;;;;-140.66;100.00;55571.53;5054700;28;20021;-69
2022/09/24 10:56:10;;;;;;;4.03;2.33;;;;;;;-140.66;100.00;55571.53;5053496;28;20496;-69
2022/09/24 10:59:14;;;;;;;2.80;2.00;;;;;;;-140.66;100.00;55571.53;5054255;28;20094;-70
2022/09/24 11:02:12;;;;;;;2.20;1.98;;;;;;;-140.66;100.00;55571.53;5054999;28;20040;-70
2022/09/24 11:05:04;;;;;;;2.20;1.70;;;;;;;-140.66;100.00;55571.53;5040075;28;20029;-71
2022/09/24 11:08:11;;;;;;;3.78;2.10;;;;;;;-140.66;100.00;55571.53;5054694;28;20029;-70
2022/09/24 11:11:31;;;;;;;3.58;2.10;;;;;;;-140.66;100.00;55571.53;5054151;28;20118;-69
2022/09/24 11:14:23;;;;;;;3.28;2.08;;;;;;;-140.66;100.00;55571.53;5052868;28;20433;-71
2022/09/24 11:17:24;;;;;;;2.55;2.20;;;;;;;-140.66;100.00;55571.53;5053966;28;20025;-69
2022/09/24 11:20:28;;;;;;;2.35;1.88;;;;;;;-140.66;100.00;55571.53;5053536;28;20028;-70
2022/09/24 11:23:23;;;;;;;2.00;1.80;;;;;;;-140.66;100.00;55571.53;5039212;28;20040;-70
2022/09/24 11:26:37;;;;;;;3.65;1.92;;;;;;;-140.66;100.00;55571.53;5053702;28;20020;-70
2022/09/24 11:29:45;;;;;;;4.55;2.40;;;;;;;-140.66;100.00;55571.53;5053309;28;20021;-69
2022/09/24 11:32:51;;;;;;;2.22;2.00;;;;;;;-140.66;100.00;55571.53;5053368;28;20150;-71
2022/09/24 11:35:55;;;;;;;6.35;2.45;;;;;;;-140.66;100.00;55571.53;5039217;28;20025;-70
2022/09/24 11:39:00;;;;;;;7.45;2.40;;;;;;;-140.66;100.00;55571.53;5053494;28;20079;-71
2022/09/24 11:42:05;;;;;;;4.13;2.05;;;;;;;-140.66;100.00;55571.53;5053527;28;20029;-69
2022/09/24 11:45:15;;;;;;;6.40;2.15;;;;;;;-140.66;100.00;55571.53;5053124;28;20126;-69
2022/09/24 11:48:16;;;;;;;3.30;2.15;;;;;;;-140.66;100.00;55571.53;5053193;28;20021;-70
2022/09/24 11:51:11;;;;;;;2.35;2.15;;;;;;;-140.66;100.00;55571.53;5053233;28;20040;-70
2022/09/24 11:54:07;;;;;;;3.55;2.10;;;;;;;-140.66;100.00;55571.53;5053206;28;20469;-71
2022/09/24 11:57:21;;;;;;;4.78;2.20;;;;;;;-140.66;100.00;55571.53;5054206;28;20060;-71
2022/09/24 12:00:14;;;;;;;3.10;2.25;;;;;;;-140.66;100.00;55571.53;5055043;28;20029;-71
2022/09/24 12:03:21;;;;;;;2.70;1.98;;;;;;;-140.66;100.00;55571.53;5054547;28;20442;-72
2022/09/24 12:06:14;;;;;;;2.33;2.00;;;;;;;-140.66;100.00;55571.53;5057888;28;20094;-71
2022/09/24 12:09:16;;;;;;;2.42;1.77;;;;;;;-140.66;100.00;55571.53;5058203;28;20056;-71
2022/09/24 12:12:26;;;;;;;2.70;2.13;;;;;;;-140.66;100.00;55571.53;5056852;28;20032;-70
2022/09/24 12:15:41;;;;;;;3.00;2.08;;;;;;;-140.66;100.00;55571.53;5056563;28;20474;-70
2022/09/24 12:18:58;;;;;;;2.33;2.10;;;;;;;-140.66;100.00;55571.53;5056280;28;20091;-70
2022/09/24 12:21:46;;;;;;;4.78;2.45;;;;;;;-140.66;100.00;55571.53;5056956;28;20051;-70
2022/09/24 12:24:36;;;;;;;5.13;2.38;;;;;;;-140.66;100.00;55571.53;5058158;28;20114;-70
2022/09/24 12:27:31;;;;;;;2.50;2.00;;;;;;;-140.66;100.00;55571.53;5056428;28;20044;-71
2022/09/24 12:33:54;;;;;;;2.08;1.88;;;;;;;-140.66;100.00;55571.53;5056145;28;20033;-70
2022/09/24 12:37:10;;;;;;;3.20;2.17;;;;;;;-140.66;100.00;55571.53;5056656;28;20028;-71
2022/09/24 12:40:15;;;;;;;2.33;1.90;;;;;;;-140.66;100.00;55571.53;5056686;28;20021;-71
2022/09/24 12:43:09;;;;;;;2.53;2.00;;;;;;;-140.66;100.00;55571.53;5056054;28;20477;-71
2022/09/24 12:46:01;;;;;;;4.72;2.20;;;;;;;-140.66;100.00;55571.53;5055542;28;20037;-70
2022/09/24 12:48:49;;;;;;;4.05;2.30;;;;;;;-140.66;100.00;55571.53;5056942;28;20029;-71
2022/09/24 12:51:37;;;;;;;3.22;2.35;;;;;;;-140.66;100.00;55571.53;5057304;28;20436;-70
2022/09/24 12:54:31;;;;;;;2.33;2.03;;;;;;;-140.66;100.00;55571.53;5057108;28;20116;-71
2022/09/24 12:57:22;;;;;;;2.90;2.38;;;;;;;-140.66;100.00;55571.53;5055867;28;20049;-71
2022/09/24 13:00:41;;;;;;;3.35;2.30;;;;;;;-140.66;100.00;55571.53;5057512;28;20040;-71
2022/09/24 13:03:38;;;;;;;6.97;3.42;;;;;;;-140.66;100.00;55571.53;5041567;28;20033;-71
2022/09/24 13:06:36;;;;;;;3.85;2.80;;;;;;;-140.66;100.00;55571.53;5057472;28;20111;-71
2022/09/24 13:09:34;;;;;;;2.75;2.40;;;;;;;-140.66;100.00;55571.53;5056622;28;20365;-70
2022/09/24 13:12:27;;;;;;;3.47;2.63;;;;;;;-140.66;100.00;55571.53;5055662;28;20035;-71
2022/09/24 13:15:29;;;;;;;3.33;2.60;;;;;;;-140.66;100.00;55571.53;5041067;28;20039;-70
2022/09/24 13:18:23;;;;;;;4.00;2.50;;;;;;;-140.66;100.00;55571.53;5056390;28;20032;-70
2022/09/24 13:21:20;;;;;;;5.50;2.90;;;;;;;-140.66;100.00;55571.53;5041892;28;20028;-70
2022/09/24 13:24:10;;;;;;;3.55;2.60;;;;;;;-140.66;100.00;55571.53;5040832;28;20440;-70
2022/09/24 13:27:20;;;;;;;4.97;2.53;;;;;;;-140.66;100.00;55571.53;5041609;28;20057;-71